»·PEaware :: N2907G KSTS-KEKA

N2907G :: KSTS-KEKA

FLIGHT INFORMATION

Flight Status: Arrived
Operator: Privately registered:
United States
More flights under this callsign
Pilot: Thomas Derbyshire (10387)
Aircraft: PIPER PA-24 COMMANCHE
(PA24)
More flights by this aircraft type
Origin: KSTS Sonoma Co
United States
Destination: KEKA Murray
United States
More flights between these airports :: More routes between these airports
Route: FREES9 FREES GETER V27 OLRIO FOT
File this flight plan on PilotEdge
Remarks:
Altitude:
(Current/Filed)
10,000ft
Speed:
(Current/Filed)
140kts
Departed: 11-Jan-17 02:39 PM
Arrived: 11-Jan-17 04:08 PM
Distance/Time
Traveled:
150nm/1:29
Distance/Time
To Go:
Arrived

Flight Plot

Page will automatically refresh every two minutes.

Flight plan parsing failed; only flown route is shown


Map Options




Map Legend


Flown Route
Filed Route
Departure Airport
Arrival Airport
Navaid (VOR, NDB)
Fix

Horizontal Profiles

Position Reports

Time Latitude Longitude Heading Altitude Ground
Speed
11-Jan-17 14:11 38.508532 -122.805298 358 128ft 0kts
11-Jan-17 14:12 38.508532 -122.805298 358 128ft 0kts
11-Jan-17 14:13 38.508532 -122.805298 358 128ft 0kts
11-Jan-17 14:14 38.508535 -122.805298 358 128ft 0kts
11-Jan-17 14:15 38.508539 -122.805298 358 128ft 0kts
11-Jan-17 14:16 38.508542 -122.805298 358 128ft 0kts
11-Jan-17 14:17 38.508545 -122.805298 358 128ft 0kts
11-Jan-17 14:18 38.508548 -122.805298 358 128ft 0kts
11-Jan-17 14:19 38.508551 -122.805298 358 128ft 0kts
11-Jan-17 14:20 38.508554 -122.805298 358 128ft 0kts
11-Jan-17 14:21 38.508557 -122.805299 358 128ft 0kts
11-Jan-17 14:22 38.508560 -122.805299 358 128ft 0kts
11-Jan-17 14:23 38.508563 -122.805299 358 128ft 0kts
11-Jan-17 14:24 38.508566 -122.805299 358 128ft 0kts
11-Jan-17 14:25 38.508569 -122.805299 358 128ft 0kts
11-Jan-17 14:26 38.508572 -122.805299 358 128ft 0kts
11-Jan-17 14:27 38.508575 -122.805299 358 128ft 0kts
11-Jan-17 14:28 38.508578 -122.805299 358 128ft 0kts
11-Jan-17 14:29 38.508581 -122.805299 358 128ft 0kts
11-Jan-17 14:30 38.508584 -122.805299 358 128ft 0kts
11-Jan-17 14:31 38.508587 -122.805299 358 128ft 0kts
11-Jan-17 14:32 38.508590 -122.805300 358 128ft 0kts
11-Jan-17 14:33 38.508593 -122.805300 358 128ft 0kts
11-Jan-17 14:34 38.508596 -122.805300 358 128ft 0kts
11-Jan-17 14:35 38.508738 -122.806625 300 128ft 6kts
11-Jan-17 14:36 38.511113 -122.808816 330 128ft 10kts
11-Jan-17 14:37 38.514227 -122.810598 305 128ft 0kts
11-Jan-17 14:38 38.514383 -122.812985 209 128ft 0kts
11-Jan-17 14:39 38.510020 -122.816070 206 151ft 73kts
11-Jan-17 14:40 38.488967 -122.826545 201 1424ft 83kts
11-Jan-17 14:41 38.472234 -122.846437 232 2700ft 84kts
11-Jan-17 14:42 38.451886 -122.863048 219 3908ft 89kts
11-Jan-17 14:43 38.433614 -122.883416 226 5064ft 88kts
11-Jan-17 14:44 38.414448 -122.903795 225 6119ft 90kts
11-Jan-17 14:45 38.404746 -122.929509 313 6960ft 103kts
11-Jan-17 14:46 38.433840 -122.934058 348 7921ft 107kts
11-Jan-17 14:47 38.463702 -122.937453 340 8728ft 107kts
11-Jan-17 14:48 38.493507 -122.943834 340 9417ft 109kts
11-Jan-17 14:49 38.523808 -122.949668 339 10023ft 111kts
11-Jan-17 14:50 38.559883 -122.956803 343 10013ft 141kts
11-Jan-17 14:51 38.596456 -122.963415 342 10006ft 147kts
11-Jan-17 14:52 38.637203 -122.971235 342 10002ft 148kts
11-Jan-17 14:53 38.678203 -122.978816 342 10000ft 149kts
11-Jan-17 14:54 38.716992 -122.991860 318 10003ft 140kts
11-Jan-17 14:55 38.749851 -123.018526 311 10001ft 137kts
11-Jan-17 14:56 38.776994 -123.052680 304 10001ft 136kts
11-Jan-17 14:57 38.803719 -123.087274 310 10000ft 137kts
11-Jan-17 14:58 38.834650 -123.117065 315 9999ft 139kts
11-Jan-17 14:59 38.870594 -123.136913 341 9999ft 148kts
11-Jan-17 15:00 38.909521 -123.150968 320 9997ft 141kts
11-Jan-17 15:01 38.940982 -123.180495 318 9995ft 140kts
11-Jan-17 15:02 38.973646 -123.208357 319 9996ft 141kts
11-Jan-17 15:03 39.006739 -123.235681 320 9996ft 141kts
11-Jan-17 15:04 39.039774 -123.263072 319 9995ft 141kts
11-Jan-17 15:05 39.074124 -123.288236 329 9996ft 144kts
11-Jan-17 15:06 39.111046 -123.308698 329 9995ft 144kts
11-Jan-17 15:07 39.147861 -123.329441 328 9996ft 144kts
11-Jan-17 15:08 39.184622 -123.350381 328 9995ft 144kts
11-Jan-17 15:09 39.221330 -123.371828 327 9994ft 144kts
11-Jan-17 15:10 39.258181 -123.393022 327 9995ft 145kts
11-Jan-17 15:11 39.294945 -123.414746 328 9993ft 145kts
11-Jan-17 15:12 39.331885 -123.436055 329 9989ft 146kts
11-Jan-17 15:13 39.368724 -123.457637 327 9990ft 145kts
11-Jan-17 15:14 39.405489 -123.479374 328 9988ft 145kts
11-Jan-17 15:15 39.442500 -123.500742 328 9988ft 145kts
11-Jan-17 15:16 39.479338 -123.522586 328 9988ft 145kts
11-Jan-17 15:17 39.516451 -123.544012 328 9985ft 146kts
11-Jan-17 15:18 39.553388 -123.565963 328 9984ft 146kts
11-Jan-17 15:19 39.590463 -123.587591 328 9983ft 146kts
11-Jan-17 15:20 39.627481 -123.609472 328 9982ft 146kts
11-Jan-17 15:21 39.664622 -123.631398 329 9982ft 147kts
11-Jan-17 15:22 39.701892 -123.653298 328 9981ft 147kts
11-Jan-17 15:23 39.739195 -123.675234 328 9979ft 147kts
11-Jan-17 15:24 39.776439 -123.697275 327 9979ft 147kts
11-Jan-17 15:25 39.813613 -123.719427 327 9978ft 147kts
11-Jan-17 15:26 39.850902 -123.741308 328 9977ft 147kts
11-Jan-17 15:27 39.888081 -123.763432 327 9979ft 147kts
11-Jan-17 15:28 39.925276 -123.785699 328 9977ft 147kts
11-Jan-17 15:29 39.962720 -123.807865 328 9979ft 147kts
11-Jan-17 15:30 39.999996 -123.830126 328 9979ft 147kts
11-Jan-17 15:31 40.037295 -123.852303 328 9979ft 147kts
11-Jan-17 15:32 40.074510 -123.874620 327 9980ft 147kts
11-Jan-17 15:33 40.112414 -123.897484 328 9684ft 158kts
11-Jan-17 15:34 40.152423 -123.921358 329 9236ft 159kts
11-Jan-17 15:35 40.192620 -123.945244 329 8813ft 157kts
11-Jan-17 15:36 40.232512 -123.969191 329 8416ft 157kts
11-Jan-17 15:37 40.272215 -123.993096 329 8012ft 158kts
11-Jan-17 15:38 40.311760 -124.016869 329 7645ft 155kts
11-Jan-17 15:39 40.351040 -124.040556 329 7294ft 155kts
11-Jan-17 15:40 40.390194 -124.064127 329 6901ft 154kts
11-Jan-17 15:41 40.426040 -124.085643 331 6589ft 154kts
11-Jan-17 15:42 40.464870 -124.109142 329 6274ft 153kts
11-Jan-17 15:43 40.503403 -124.132681 330 5999ft 152kts
11-Jan-17 15:44 40.540620 -124.154995 329 5998ft 143kts
11-Jan-17 15:45 40.576634 -124.177210 329 5996ft 142kts
11-Jan-17 15:46 40.610324 -124.196990 329 5835ft 151kts
11-Jan-17 15:47 40.648686 -124.221006 330 5574ft 152kts
11-Jan-17 15:48 40.688548 -124.243225 342 5203ft 158kts
11-Jan-17 15:49 40.732373 -124.251041 346 4849ft 161kts
11-Jan-17 15:50 40.773805 -124.262260 342 4247ft 144kts
11-Jan-17 15:51 40.813421 -124.273268 347 3418ft 145kts
11-Jan-17 15:52 40.852471 -124.283564 346 2853ft 128kts
11-Jan-17 15:53 40.885833 -124.292454 347 2988ft 116kts
11-Jan-17 15:54 40.916246 -124.300731 345 2980ft 107kts
11-Jan-17 15:55 40.939764 -124.321653 308 2993ft 105kts
11-Jan-17 15:56 40.959956 -124.351374 308 2991ft 110kts
11-Jan-17 15:57 40.975310 -124.384728 259 2979ft 107kts
11-Jan-17 15:58 40.952862 -124.398172 144 2968ft 105kts
11-Jan-17 15:59 40.944376 -124.361550 99 2983ft 108kts
11-Jan-17 16:00 40.937331 -124.323901 127 2985ft 104kts
11-Jan-17 16:01 40.920926 -124.296211 136 2983ft 103kts
11-Jan-17 16:02 40.901642 -124.268077 133 2982ft 103kts
11-Jan-17 16:03 40.882564 -124.237897 132 2380ft 110kts
11-Jan-17 16:04 40.863081 -124.206774 132 1615ft 108kts
11-Jan-17 16:05 40.845434 -124.178805 133 1076ft 94kts
11-Jan-17 16:06 40.829645 -124.153667 133 758ft 88kts
11-Jan-17 16:07 40.815482 -124.128633 140 323ft 83kts
11-Jan-17 16:08 40.801628 -124.110463 134 10ft 21kts
11-Jan-17 16:09 40.800507 -124.109846 324 10ft 8kts
11-Jan-17 16:10 40.802581 -124.112494 314 10ft 11kts
11-Jan-17 16:11 40.803803 -124.114124 318 10ft 4kts
11-Jan-17 16:12 40.805135 -124.116075 235 10ft 2kts
11-Jan-17 16:13 40.804415 -124.115775 132 10ft 3kts
11-Jan-17 16:14 40.804103 -124.116386 14 10ft 3kts

Navigation Log

Ident Type
Flight plan parsing failed, navigation log unavailable